CheckWX is a tool to help pilots better visualize weather data.  It is not intended as a substitute for an official pre-flight weather briefing.

09:47:28 UTC

KRCV METAR
Astronaut Kent Rominger Airport
Del Norte, Colorado, USA
Current

12 mins ago

KRCV 200935Z AUTO 28009KT 10SM CLR M15/M21 A2961 RMK AO2 T11471211
Observed
Feb-20 @ 09:35 UTC
Wind
  • 280° at 9 KTS
Visibility
16,093 meters
Flight Rules
VFR
Cloud Levels
  • Clear skies
Temperature
-15°C / 5°F
Dewpoint
-21°C / -6°F
Humidity
60%
Altimeter
29.61" Hg
Pressure
1002.72 hPa
Previous

32 mins ago

KRCV 200915Z AUTO 29009KT 10SM CLR M15/M21 A2961 RMK AO2 T11491214
Observed
Feb-20 @ 09:15 UTC
Wind
  • 290° at 9 KTS
Visibility
16,093 meters
Flight Rules
VFR
Cloud Levels
  • Clear skies
Temperature
-15°C / 5°F
Dewpoint
-21°C / -6°F
Humidity
60%
Altimeter
29.61" Hg
Pressure
1002.72 hPa
Previous

52 mins ago

KRCV 200855Z AUTO 28011KT 10SM CLR M15/M21 A2961 RMK AO2 T11481210
Observed
Feb-20 @ 08:55 UTC
Wind
  • 280° at 11 KTS
Visibility
16,093 meters
Flight Rules
VFR
Cloud Levels
  • Clear skies
Temperature
-15°C / 5°F
Dewpoint
-21°C / -6°F
Humidity
60%
Altimeter
29.61" Hg
Pressure
1002.72 hPa